Terminal Aerodrome Forecast
Issued by NWS

Home | Current Version | Previous Version | Text Only | Print | Product List | Glossary On
Versions: 1 2 3 4 5 6 7 8 9 10 11 12 13 14 15 16
000
FTUS46 KOTX 232051 AAA
TAFSFF
TAF AMD
KSFF 232051Z 2321/2418 21011KT P6SM FEW250
     FM232300 21008G16KT P6SM SCT250
     FM240100 22010G18KT P6SM SCT250
     FM240400 22014G22KT P6SM FEW060 SCT250
     FM241000 22011G16KT P6SM SKC=

USA.gov is the U.S. government's official web portal to all federal, state and local government web resources and services.